Time;durP1;ratioP1;P1;durP2;ratioP2;P2;SDS_P1;SDS_P2;PMS_P1;PMS_P2;Temp;Humidity;BMP_temperature;BMP_pressure;BME280_temperature;BME280_humidity;BME280_pressure;Samples;Min_cycle;Max_cycle;Signal;HPM_P1;HPM_P2
2024/01/18 00:01:32;;;;;;;122.22;115.07;;;12.00;99.90;;;;;;5053374;28;20037;-72
2024/01/18 00:03:58;;;;;;;122.10;114.70;;;12.00;99.90;;;;;;5046584;28;20025;-72
2024/01/18 00:06:25;;;;;;;103.63;97.40;;;11.90;99.90;;;;;;5022274;28;20037;-72
2024/01/18 00:08:51;;;;;;;104.22;98.15;;;12.00;99.90;;;;;;5034397;28;20029;-72
2024/01/18 00:11:17;;;;;;;118.65;111.28;;;12.00;99.90;;;;;;5043236;28;20025;-72
2024/01/18 00:13:46;;;;;;;158.30;148.85;;;12.00;99.90;;;;;;5051459;28;20049;-72
2024/01/18 00:16:12;;;;;;;182.75;171.95;;;12.00;99.90;;;;;;5052926;28;20033;-72
2024/01/18 00:18:38;;;;;;;191.25;179.82;;;12.00;99.90;;;;;;5053594;28;20074;-72
2024/01/18 00:21:04;;;;;;;235.00;221.48;;;12.00;99.90;;;;;;5050681;28;20029;-72
2024/01/18 00:23:30;;;;;;;108.10;101.15;;;12.00;99.90;;;;;;5053690;28;20045;-72
2024/01/18 00:25:56;;;;;;;184.23;173.38;;;12.00;99.90;;;;;;5040174;28;20028;-72
2024/01/18 00:28:22;;;;;;;260.17;244.20;;;12.00;99.90;;;;;;5054362;28;20483;-72
2024/01/18 00:30:48;;;;;;;110.95;104.15;;;12.00;99.90;;;;;;5052878;28;20040;-72
2024/01/18 00:33:15;;;;;;;149.52;140.63;;;12.00;99.90;;;;;;5053426;28;20048;-72
2024/01/18 00:35:41;;;;;;;164.10;154.10;;;12.00;99.90;;;;;;5048246;28;20032;-72
2024/01/18 00:38:07;;;;;;;169.45;159.00;;;12.00;99.90;;;;;;5053427;28;20033;-72
2024/01/18 00:40:33;;;;;;;107.93;101.38;;;12.00;99.90;;;;;;5050212;28;20502;-73
2024/01/18 00:42:59;;;;;;;105.70;98.82;;;12.00;99.90;;;;;;5043990;28;20025;-72
2024/01/18 00:45:25;;;;;;;119.82;112.20;;;12.00;99.90;;;;;;5037639;28;20034;-72
2024/01/18 00:47:51;;;;;;;121.53;113.97;;;12.00;99.90;;;;;;5068532;28;20033;-72
2024/01/18 00:50:18;;;;;;;111.15;103.63;;;12.10;99.90;;;;;;5053124;28;20395;-72
2024/01/18 00:52:44;;;;;;;107.18;99.75;;;12.10;99.90;;;;;;5053288;28;20372;-72
2024/01/18 00:55:10;;;;;;;115.57;108.22;;;12.10;99.90;;;;;;5051762;28;20045;-72
2024/01/18 00:57:37;;;;;;;117.25;109.97;;;12.00;99.90;;;;;;5053360;28;20060;-73
2024/01/18 01:00:05;;;;;;;156.43;146.52;;;12.10;99.90;;;;;;5052661;28;20033;-71
2024/01/18 01:02:31;;;;;;;131.43;122.47;;;12.10;99.90;;;;;;5052779;28;20618;-72
2024/01/18 01:04:57;;;;;;;138.48;129.20;;;12.10;99.90;;;;;;5039600;28;20391;-72
2024/01/18 01:07:23;;;;;;;127.35;119.32;;;12.10;99.90;;;;;;5050864;28;20040;-72
2024/01/18 01:09:49;;;;;;;66.10;62.75;;;12.10;99.90;;;;;;5052801;28;20025;-72
2024/01/18 01:12:15;;;;;;;74.03;70.45;;;11.50;99.90;;;;;;5052849;28;20139;-72
2024/01/18 01:14:42;;;;;;;75.15;71.57;;;11.10;99.90;;;;;;5042140;28;20057;-72
2024/01/18 01:17:08;;;;;;;101.15;96.20;;;10.20;99.90;;;;;;5048134;28;20044;-74
2024/01/18 01:19:34;;;;;;;94.35;89.78;;;9.90;99.90;;;;;;5052478;28;20037;-74
2024/01/18 01:22:00;;;;;;;108.65;103.38;;;9.60;99.90;;;;;;5052897;28;20049;-74
2024/01/18 01:24:26;;;;;;;69.63;66.22;;;9.30;99.90;;;;;;5051615;28;20486;-74
2024/01/18 01:26:52;;;;;;;51.42;48.92;;;8.80;99.90;;;;;;5052306;28;20033;-74
2024/01/18 01:29:18;;;;;;;64.85;61.70;;;8.50;99.90;;;;;;5052657;28;20456;-74
2024/01/18 01:31:45;;;;;;;49.22;46.85;;;8.20;99.90;;;;;;5051602;28;20044;-73
2024/01/18 01:34:11;;;;;;;53.53;50.97;;;7.80;99.90;;;;;;5045620;28;20419;-74
2024/01/18 01:36:37;;;;;;;49.58;47.17;;;7.50;99.90;;;;;;5043943;28;20045;-74
2024/01/18 01:39:03;;;;;;;116.77;111.03;;;7.40;99.90;;;;;;5052446;28;20471;-74
2024/01/18 01:41:29;;;;;;;36.87;35.07;;;7.30;99.90;;;;;;5051093;28;20378;-74
2024/01/18 01:43:57;;;;;;;72.47;68.97;;;7.10;99.90;;;;;;5051580;28;20033;-73
2024/01/18 01:46:23;;;;;;;57.57;54.73;;;7.00;99.90;;;;;;5051467;28;20553;-74
2024/01/18 01:48:49;;;;;;;58.83;56.03;;;6.70;99.90;;;;;;5051962;28;20029;-74
2024/01/18 01:51:15;;;;;;;76.93;73.17;;;6.70;99.90;;;;;;5051763;28;20049;-73
2024/01/18 01:53:41;;;;;;;67.90;64.60;;;6.60;99.90;;;;;;5051224;28;20039;-74
2024/01/18 01:56:07;;;;;;;53.43;50.73;;;6.50;99.90;;;;;;5050809;28;20386;-74
2024/01/18 01:58:36;;;;;;;45.97;43.77;;;6.30;99.90;;;;;;5051067;28;20112;-74
2024/01/18 02:01:02;;;;;;;52.87;50.27;;;6.30;99.90;;;;;;5050256;28;20040;-74
2024/01/18 02:03:28;;;;;;;50.07;47.63;;;6.00;99.90;;;;;;5051484;28;20044;-74
2024/01/18 02:05:54;;;;;;;48.90;46.57;;;6.10;99.90;;;;;;5050003;28;20029;-74
2024/01/18 02:08:20;;;;;;;58.37;55.57;;;5.90;99.90;;;;;;5050901;28;20033;-73
2024/01/18 02:10:46;;;;;;;80.17;76.30;;;5.80;99.90;;;;;;5051473;28;20032;-74
2024/01/18 02:13:12;;;;;;;33.93;32.23;;;5.80;99.90;;;;;;5050432;28;20060;-74
2024/01/18 02:15:38;;;;;;;38.43;36.53;;;5.90;99.90;;;;;;5037811;28;20032;-74
2024/01/18 02:18:05;;;;;;;62.63;59.40;;;6.00;99.90;;;;;;5032795;28;20033;-74
2024/01/18 02:20:31;;;;;;;52.70;50.13;;;5.70;99.90;;;;;;5034764;28;20033;-74
2024/01/18 02:22:57;;;;;;;41.57;39.57;;;5.60;99.90;;;;;;5050075;28;20037;-74
2024/01/18 02:25:27;;;;;;;28.50;27.10;;;5.50;99.90;;;;;;5038177;28;20040;-74
2024/01/18 02:27:57;;;;;;;28.73;27.33;;;5.40;99.90;;;;;;5051861;28;20061;-74
2024/01/18 02:30:23;;;;;;;27.43;26.07;;;5.50;99.90;;;;;;5050856;28;20040;-73
2024/01/18 02:32:49;;;;;;;34.77;33.07;;;5.50;99.90;;;;;;5050742;28;20033;-74
2024/01/18 02:35:16;;;;;;;53.03;50.43;;;5.40;99.90;;;;;;5051411;28;20032;-74
2024/01/18 02:37:42;;;;;;;31.33;29.83;;;5.30;99.90;;;;;;5051733;28;20526;-73
2024/01/18 02:40:08;;;;;;;25.77;24.57;;;5.20;99.90;;;;;;5051707;28;20742;-74
2024/01/18 02:42:34;;;;;;;30.07;28.63;;;5.30;99.90;;;;;;5047653;28;20029;-74
2024/01/18 02:45:03;;;;;;;55.80;53.00;;;5.30;99.90;;;;;;5050611;28;20033;-73
2024/01/18 02:47:30;;;;;;;61.23;58.27;;;5.20;99.90;;;;;;5049594;28;20523;-74
2024/01/18 02:49:57;;;;;;;76.10;72.40;;;5.20;99.90;;;;;;5051661;28;20036;-74
2024/01/18 02:52:23;;;;;;;29.47;28.00;;;5.00;99.90;;;;;;5050518;28;20037;-74
2024/01/18 02:54:49;;;;;;;21.20;20.13;;;5.10;99.90;;;;;;5051575;28;20037;-74
2024/01/18 02:57:15;;;;;;;57.33;54.50;;;5.10;99.90;;;;;;5050445;28;20042;-74
2024/01/18 02:59:41;;;;;;;36.90;35.13;;;5.10;99.90;;;;;;5050839;28;20035;-74
2024/01/18 03:02:07;;;;;;;30.53;29.07;;;5.10;99.90;;;;;;5047921;28;20395;-74
2024/01/18 03:04:33;;;;;;;70.13;66.70;;;5.10;99.90;;;;;;5041999;28;20099;-74
2024/01/18 03:06:59;;;;;;;33.60;31.97;;;5.10;99.90;;;;;;5041084;28;20021;-74
2024/01/18 03:09:26;;;;;;;49.53;47.00;;;5.00;99.90;;;;;;5041016;28;20037;-74
2024/01/18 03:11:52;;;;;;;70.60;67.00;;;5.00;99.90;;;;;;5036139;28;20041;-74
2024/01/18 03:14:20;;;;;;;66.70;63.50;;;5.00;99.90;;;;;;5029548;28;20491;-74
2024/01/18 03:16:46;;;;;;;53.47;50.90;;;5.10;99.90;;;;;;5040867;28;20029;-74
2024/01/18 03:19:12;;;;;;;34.07;32.37;;;5.10;99.90;;;;;;5052504;28;20052;-74
2024/01/18 03:21:39;;;;;;;29.87;28.43;;;5.10;99.90;;;;;;5045100;28;20041;-74
2024/01/18 03:24:06;;;;;;;34.07;32.43;;;5.10;99.90;;;;;;5039096;28;20515;-74
2024/01/18 03:26:32;;;;;;;57.40;54.70;;;5.20;99.90;;;;;;5053374;28;20041;-75
2024/01/18 03:28:58;;;;;;;28.67;27.27;;;5.20;99.90;;;;;;5053127;28;20029;-74
2024/01/18 03:31:24;;;;;;;64.83;61.70;;;5.20;99.90;;;;;;5051051;28;20045;-74
2024/01/18 03:33:50;;;;;;;54.13;51.43;;;5.10;99.90;;;;;;5039299;28;20041;-74
2024/01/18 03:36:17;;;;;;;96.67;92.00;;;5.00;99.90;;;;;;5036549;28;20495;-74
2024/01/18 03:38:43;;;;;;;41.77;39.77;;;5.00;99.90;;;;;;5054668;28;20033;-74
2024/01/18 03:41:10;;;;;;;26.90;25.50;;;5.00;99.90;;;;;;5046567;28;20021;-74
2024/01/18 03:43:36;;;;;;;72.87;68.83;;;5.00;99.90;;;;;;5040182;28;20040;-73
2024/01/18 03:46:02;;;;;;;62.87;59.83;;;5.00;99.90;;;;;;5041083;28;20479;-74
2024/01/18 03:48:28;;;;;;;33.03;31.40;;;4.90;99.90;;;;;;5054641;28;20028;-74
2024/01/18 03:50:54;;;;;;;41.83;39.73;;;5.00;99.90;;;;;;5053733;28;20037;-74
2024/01/18 03:53:20;;;;;;;48.17;45.87;;;5.00;99.90;;;;;;5054503;28;20044;-74
2024/01/18 03:55:47;;;;;;;33.43;31.83;;;5.00;99.90;;;;;;5054028;28;20029;-74
2024/01/18 03:58:13;;;;;;;45.93;43.67;;;4.90;99.90;;;;;;5053504;28;20025;-74
2024/01/18 04:00:39;;;;;;;49.63;47.23;;;4.90;99.90;;;;;;5053469;28;20029;-74
2024/01/18 04:03:05;;;;;;;69.50;66.13;;;4.90;99.90;;;;;;5054384;28;20033;-73
2024/01/18 04:05:31;;;;;;;43.90;41.80;;;4.90;99.90;;;;;;5054004;28;20037;-74
2024/01/18 04:07:58;;;;;;;41.37;39.40;;;4.90;99.90;;;;;;5054205;28;20017;-73
2024/01/18 04:10:24;;;;;;;45.63;43.33;;;5.00;99.90;;;;;;5053099;28;20088;-74
2024/01/18 04:12:50;;;;;;;40.57;38.50;;;5.00;99.90;;;;;;5033723;28;20044;-73
2024/01/18 04:15:16;;;;;;;78.10;74.30;;;5.00;99.90;;;;;;5034150;28;20400;-74
2024/01/18 04:17:42;;;;;;;65.43;62.30;;;4.90;99.90;;;;;;5044830;28;20029;-73
2024/01/18 04:20:11;;;;;;;57.67;54.90;;;4.90;99.90;;;;;;5033648;28;20033;-74
2024/01/18 04:22:37;;;;;;;83.80;79.73;;;4.90;99.90;;;;;;5032166;28;20041;-73
2024/01/18 04:25:03;;;;;;;27.23;25.93;;;4.80;99.90;;;;;;5049154;28;20040;-73
2024/01/18 04:27:30;;;;;;;38.93;37.10;;;4.90;99.90;;;;;;5044130;28;20411;-73
2024/01/18 04:29:56;;;;;;;29.43;27.80;;;4.90;99.90;;;;;;5032877;28;20032;-73
2024/01/18 04:32:22;;;;;;;28.50;27.13;;;4.90;99.90;;;;;;5050123;28;20468;-72
2024/01/18 04:34:48;;;;;;;28.70;27.30;;;4.90;99.90;;;;;;5053723;28;20033;-73
2024/01/18 04:37:14;;;;;;;27.47;26.17;;;4.90;99.90;;;;;;5048808;28;20036;-73
2024/01/18 04:39:40;;;;;;;27.03;25.77;;;4.90;99.90;;;;;;5032522;28;20036;-73
2024/01/18 04:42:08;;;;;;;28.20;26.87;;;5.00;99.90;;;;;;5052298;28;20483;-73
2024/01/18 04:44:34;;;;;;;36.10;34.40;;;5.00;99.90;;;;;;5041710;28;20499;-73
2024/01/18 04:47:00;;;;;;;18.97;18.07;;;4.90;99.90;;;;;;5045779;28;20372;-73
2024/01/18 04:49:26;;;;;;;23.97;22.83;;;4.90;99.90;;;;;;5052170;28;20033;-73
2024/01/18 04:51:52;;;;;;;34.47;32.83;;;5.00;99.90;;;;;;5048587;28;20482;-73
2024/01/18 04:54:18;;;;;;;28.13;26.80;;;5.00;99.90;;;;;;5033377;28;20053;-73
2024/01/18 04:56:45;;;;;;;41.33;39.30;;;5.00;99.90;;;;;;5045762;28;20037;-74
2024/01/18 04:59:11;;;;;;;24.63;23.50;;;5.00;99.90;;;;;;5053478;28;20036;-73
2024/01/18 05:01:39;;;;;;;31.27;29.80;;;5.00;99.90;;;;;;5067687;28;20029;-73
2024/01/18 05:04:06;;;;;;;38.63;36.77;;;4.90;99.90;;;;;;5046817;28;20041;-73
2024/01/18 05:06:32;;;;;;;28.30;26.87;;;4.90;99.90;;;;;;5043317;28;20391;-74
2024/01/18 05:08:58;;;;;;;30.63;29.13;;;4.80;99.90;;;;;;5051887;28;20032;-73
2024/01/18 05:11:25;;;;;;;31.90;30.40;;;4.80;99.90;;;;;;5052053;28;20427;-73
2024/01/18 05:13:51;;;;;;;44.87;42.73;;;4.90;99.90;;;;;;5050722;28;20381;-73
2024/01/18 05:16:18;;;;;;;26.13;24.87;;;4.80;99.90;;;;;;5039503;28;20038;-73
2024/01/18 05:18:44;;;;;;;30.93;29.43;;;4.90;99.90;;;;;;5051669;28;20430;-73
2024/01/18 05:21:10;;;;;;;22.90;21.73;;;4.90;99.90;;;;;;5052356;28;20032;-73
2024/01/18 05:23:36;;;;;;;23.63;22.53;;;4.90;99.90;;;;;;5046061;28;20468;-73
2024/01/18 05:26:03;;;;;;;32.50;30.93;;;4.90;99.90;;;;;;5039414;28;20060;-73
2024/01/18 05:28:29;;;;;;;37.20;35.33;;;5.00;99.90;;;;;;5053428;28;20407;-73
2024/01/18 05:30:56;;;;;;;26.27;25.00;;;5.00;99.90;;;;;;5051561;28;20029;-73
2024/01/18 05:33:22;;;;;;;36.50;34.70;;;5.10;99.90;;;;;;5035726;28;20056;-73
2024/01/18 05:35:49;;;;;;;29.57;28.07;;;5.20;99.90;;;;;;5037467;28;20029;-73
2024/01/18 05:38:15;;;;;;;29.60;28.10;;;5.20;99.90;;;;;;5052418;28;20029;-74
2024/01/18 05:40:41;;;;;;;24.33;23.13;;;5.30;99.90;;;;;;5051067;28;20033;-74
2024/01/18 05:43:07;;;;;;;31.00;29.50;;;5.20;99.90;;;;;;5051088;28;20013;-73
2024/01/18 05:45:33;;;;;;;42.47;40.40;;;5.20;99.90;;;;;;5051580;28;20043;-74
2024/01/18 05:48:01;;;;;;;35.23;33.53;;;5.10;99.90;;;;;;5052429;28;20460;-73
2024/01/18 05:50:27;;;;;;;34.77;33.07;;;5.00;99.90;;;;;;5037266;28;20028;-73
2024/01/18 05:52:53;;;;;;;29.10;27.53;;;5.00;99.90;;;;;;5047804;28;20041;-73
2024/01/18 05:55:20;;;;;;;27.20;25.80;;;5.10;99.90;;;;;;5033007;28;20041;-74
2024/01/18 05:57:47;;;;;;;30.07;28.57;;;5.10;99.90;;;;;;5052134;28;20032;-74
2024/01/18 06:00:13;;;;;;;35.73;33.93;;;5.00;99.90;;;;;;5051711;28;20044;-73
2024/01/18 06:02:39;;;;;;;42.80;40.60;;;5.10;99.90;;;;;;5050143;28;20033;-74
2024/01/18 06:05:06;;;;;;;30.30;28.80;;;5.00;99.90;;;;;;5032141;28;20415;-74
2024/01/18 06:07:33;;;;;;;37.20;35.30;;;4.90;99.90;;;;;;5051374;28;20040;-73
2024/01/18 06:09:59;;;;;;;32.90;31.17;;;4.90;99.90;;;;;;5050672;28;20040;-73
2024/01/18 06:12:25;;;;;;;33.93;32.23;;;4.90;99.90;;;;;;5039771;28;20392;-73
2024/01/18 06:14:52;;;;;;;44.20;41.90;;;4.90;99.90;;;;;;5032008;28;20125;-73
2024/01/18 06:17:18;;;;;;;36.27;34.33;;;4.80;99.90;;;;;;5047359;28;20472;-73
2024/01/18 06:19:44;;;;;;;36.30;34.33;;;4.80;99.90;;;;;;5051962;28;20029;-73
2024/01/18 06:22:10;;;;;;;44.40;42.13;;;4.80;99.90;;;;;;5051182;28;20036;-72
2024/01/18 06:24:36;;;;;;;28.73;27.27;;;4.70;99.90;;;;;;5034008;28;20044;-72
2024/01/18 06:27:03;;;;;;;27.33;25.83;;;4.70;99.90;;;;;;5046799;28;20410;-71
2024/01/18 06:29:30;;;;;;;38.07;35.93;;;4.60;99.90;;;;;;5050752;28;20052;-73
2024/01/18 06:31:56;;;;;;;49.93;47.23;;;4.60;99.90;;;;;;5050921;28;20063;-72
2024/01/18 06:34:22;;;;;;;43.67;41.30;;;4.50;99.90;;;;;;5039702;28;20045;-72
2024/01/18 06:36:50;;;;;;;43.07;40.73;;;4.60;99.90;;;;;;5051168;28;20040;-72
2024/01/18 06:39:16;;;;;;;55.00;52.13;;;4.50;99.90;;;;;;5050354;28;20041;-72
2024/01/18 06:41:42;;;;;;;65.87;62.47;;;4.50;99.90;;;;;;5051292;28;20033;-72
2024/01/18 06:44:09;;;;;;;56.60;53.60;;;4.60;99.90;;;;;;5051284;28;20029;-72
2024/01/18 06:46:35;;;;;;;69.80;66.20;;;4.60;99.90;;;;;;5050774;28;20422;-72
2024/01/18 06:49:01;;;;;;;52.50;49.83;;;4.50;99.90;;;;;;5052085;28;20033;-71
2024/01/18 06:51:28;;;;;;;46.40;43.87;;;4.50;99.90;;;;;;5051589;28;20402;-73
2024/01/18 06:53:54;;;;;;;49.47;46.77;;;4.40;99.90;;;;;;5054478;28;20049;-72
2024/01/18 06:56:20;;;;;;;67.00;63.50;;;4.40;99.90;;;;;;5055165;28;20029;-72
2024/01/18 06:58:46;;;;;;;48.33;45.70;;;4.50;99.90;;;;;;5055430;28;20052;-72
2024/01/18 07:01:13;;;;;;;54.57;51.60;;;4.40;99.90;;;;;;5054549;28;20040;-72
2024/01/18 07:03:40;;;;;;;66.23;62.77;;;4.50;99.90;;;;;;5045991;28;20044;-73
2024/01/18 07:06:06;;;;;;;72.00;68.23;;;4.40;99.90;;;;;;5054066;28;20059;-72
2024/01/18 07:08:33;;;;;;;54.60;51.70;;;4.40;99.90;;;;;;5055206;28;20028;-73
2024/01/18 07:11:01;;;;;;;49.83;47.03;;;4.50;99.90;;;;;;5054003;28;20032;-72
2024/01/18 07:13:27;;;;;;;83.40;79.03;;;4.40;99.90;;;;;;5054798;28;20044;-72
2024/01/18 07:15:54;;;;;;;67.73;64.10;;;4.50;99.90;;;;;;5042295;28;20045;-74
2024/01/18 07:18:20;;;;;;;59.57;56.43;;;4.40;99.90;;;;;;5050569;28;20033;-74
2024/01/18 07:20:46;;;;;;;65.17;61.70;;;4.40;99.90;;;;;;5039298;28;20344;-74
2024/01/18 07:23:13;;;;;;;61.03;57.73;;;4.40;99.90;;;;;;5054581;28;20036;-74
2024/01/18 07:25:39;;;;;;;60.10;56.93;;;4.30;99.90;;;;;;5038562;28;20049;-74
2024/01/18 07:28:06;;;;;;;68.23;64.70;;;4.30;99.90;;;;;;5035318;28;20052;-73
2024/01/18 07:30:32;;;;;;;48.43;45.90;;;4.30;99.90;;;;;;5033896;28;20369;-74
2024/01/18 07:32:58;;;;;;;57.77;54.70;;;4.30;99.90;;;;;;5040269;28;20048;-74
2024/01/18 07:35:24;;;;;;;35.97;33.87;;;4.20;99.90;;;;;;5054391;28;20792;-74
2024/01/18 07:37:50;;;;;;;65.80;62.37;;;4.30;99.90;;;;;;5054676;28;20033;-73
2024/01/18 07:40:16;;;;;;;49.27;46.60;;;4.30;99.90;;;;;;5049271;28;20028;-74
2024/01/18 07:42:43;;;;;;;97.40;92.30;;;4.20;99.90;;;;;;5048822;28;20041;-74
2024/01/18 07:45:14;;;;;;;37.97;35.83;;;4.30;99.90;;;;;;5048428;28;20060;-74
2024/01/18 07:47:41;;;;;;;43.03;40.55;;;4.20;99.90;;;;;;5054217;28;20029;-74
2024/01/18 07:50:08;;;;;;;39.83;37.60;;;4.20;99.90;;;;;;5049002;28;20079;-74
2024/01/18 07:52:34;;;;;;;73.53;69.53;;;4.20;99.90;;;;;;5046580;28;20041;-74
2024/01/18 07:55:01;;;;;;;50.73;47.73;;;4.30;99.90;;;;;;5034881;28;20399;-74
2024/01/18 07:57:27;;;;;;;51.63;48.87;;;4.20;99.90;;;;;;5051820;28;20467;-74
2024/01/18 07:59:53;;;;;;;48.83;46.17;;;4.30;99.90;;;;;;5054133;28;20029;-74
2024/01/18 08:02:19;;;;;;;38.80;36.50;;;4.20;99.90;;;;;;5039546;28;20037;-74
2024/01/18 08:04:45;;;;;;;30.57;28.63;;;4.20;99.90;;;;;;5031761;28;20051;-74
2024/01/18 08:07:11;;;;;;;28.77;26.93;;;4.30;99.90;;;;;;5034178;28;20460;-74
2024/01/18 08:09:38;;;;;;;32.10;29.93;;;4.40;99.90;;;;;;5037780;28;20032;-74
2024/01/18 08:12:05;;;;;;;29.50;27.40;;;4.40;99.90;;;;;;5039158;28;20038;-74
2024/01/18 08:14:31;;;;;;;32.20;30.10;;;4.30;99.90;;;;;;5043576;28;20503;-74
2024/01/18 08:16:57;;;;;;;36.73;34.37;;;4.30;99.90;;;;;;5047366;28;20025;-74
2024/01/18 08:19:23;;;;;;;31.20;29.20;;;4.30;99.90;;;;;;5053227;28;20052;-74
2024/01/18 08:21:49;;;;;;;41.37;38.83;;;4.30;99.90;;;;;;5052272;28;20029;-74
2024/01/18 08:24:15;;;;;;;54.97;51.97;;;4.30;99.90;;;;;;5047530;28;20029;-74
2024/01/18 08:26:44;;;;;;;44.77;42.07;;;4.40;99.90;;;;;;5045635;28;20029;-75
2024/01/18 08:29:10;;;;;;;47.20;44.40;;;4.30;99.90;;;;;;5050606;28;20049;-73
2024/01/18 08:31:36;;;;;;;38.87;36.47;;;4.30;99.90;;;;;;5042493;28;20029;-74
2024/01/18 08:34:02;;;;;;;33.33;31.23;;;4.20;99.90;;;;;;5048976;28;20041;-74
2024/01/18 08:36:29;;;;;;;33.63;31.33;;;4.20;99.90;;;;;;5046674;28;20033;-74
2024/01/18 08:38:55;;;;;;;36.40;33.87;;;4.20;99.90;;;;;;5053254;28;20029;-74
2024/01/18 08:41:21;;;;;;;35.83;33.50;;;4.30;99.90;;;;;;5048180;28;20029;-74
2024/01/18 08:43:48;;;;;;;43.20;40.60;;;4.30;99.90;;;;;;5048607;28;20024;-73
2024/01/18 08:46:14;;;;;;;53.13;50.20;;;4.20;99.90;;;;;;5049811;28;20518;-74
2024/01/18 08:48:40;;;;;;;56.60;53.37;;;4.30;99.90;;;;;;5042712;28;20491;-74
2024/01/18 08:51:13;;;;;;;42.57;40.00;;;4.20;99.90;;;;;;5048203;28;20036;-74
2024/01/18 08:53:42;;;;;;;48.00;45.20;;;4.30;99.90;;;;;;5053413;28;20052;-75
2024/01/18 08:56:08;;;;;;;60.50;57.03;;;4.30;99.90;;;;;;5052453;28;20398;-74
2024/01/18 08:58:35;;;;;;;56.93;53.53;;;4.30;99.90;;;;;;5053226;28;20024;-74
2024/01/18 09:01:01;;;;;;;58.90;55.50;;;4.20;99.90;;;;;;5051978;28;20029;-73
2024/01/18 09:03:27;;;;;;;73.00;68.50;;;4.20;99.90;;;;;;5045569;28;20037;-73
2024/01/18 09:05:53;;;;;;;60.20;56.63;;;4.30;99.90;;;;;;5038400;28;20475;-73
2024/01/18 09:08:19;;;;;;;67.87;64.13;;;4.30;99.90;;;;;;5052344;28;20033;-73
2024/01/18 09:10:46;;;;;;;71.97;67.93;;;4.20;99.90;;;;;;5052325;28;20028;-73
2024/01/18 09:13:12;;;;;;;83.20;78.70;;;4.20;99.90;;;;;;5052749;28;20044;-73
2024/01/18 09:15:38;;;;;;;56.03;52.93;;;4.30;99.90;;;;;;5047499;28;20042;-74
2024/01/18 09:18:04;;;;;;;60.57;57.27;;;4.40;99.90;;;;;;5038462;28;20369;-75
2024/01/18 09:20:30;;;;;;;47.17;44.40;;;4.50;99.90;;;;;;5043573;28;20033;-75
2024/01/18 09:22:57;;;;;;;36.03;33.83;;;4.50;99.90;;;;;;5051473;28;20040;-74
2024/01/18 09:25:23;;;;;;;38.73;35.87;;;4.40;99.90;;;;;;5045210;28;20033;-74
2024/01/18 09:27:49;;;;;;;42.33;39.87;;;4.20;99.90;;;;;;5048781;28;20029;-74
2024/01/18 09:30:15;;;;;;;37.90;35.90;;;4.10;99.90;;;;;;5036134;28;20048;-74
2024/01/18 09:32:41;;;;;;;33.80;31.63;;;4.10;99.90;;;;;;5039729;28;20033;-74
2024/01/18 09:35:08;;;;;;;55.87;52.70;;;4.00;99.90;;;;;;5032218;28;20480;-72
2024/01/18 09:37:38;;;;;;;43.77;40.97;;;4.10;99.90;;;;;;5017587;28;20040;-73
2024/01/18 09:40:04;;;;;;;40.37;37.83;;;4.20;99.90;;;;;;5051749;28;20037;-73
2024/01/18 09:42:33;;;;;;;45.57;43.10;;;4.30;99.90;;;;;;5034277;28;20483;-74
2024/01/18 09:45:08;;;;;;;46.93;44.23;;;4.30;99.90;;;;;;5015224;28;20033;-74
2024/01/18 09:47:34;;;;;;;35.17;32.87;;;4.40;99.90;;;;;;5013881;28;20040;-73
2024/01/18 09:50:01;;;;;;;34.87;32.73;;;4.50;99.90;;;;;;5031967;28;20041;-73
2024/01/18 09:52:27;;;;;;;64.37;60.87;;;4.50;99.90;;;;;;5041475;28;20041;-72
2024/01/18 09:54:53;;;;;;;44.03;41.53;;;4.40;99.90;;;;;;5024586;28;20048;-69
2024/01/18 09:57:25;;;;;;;42.00;39.53;;;4.70;99.90;;;;;;5041205;28;20364;-73
2024/01/18 09:59:51;;;;;;;57.17;53.53;;;4.60;99.90;;;;;;5040780;28;20042;-73
2024/01/18 10:02:18;;;;;;;75.13;70.93;;;4.60;99.90;;;;;;5047628;28;20480;-74
2024/01/18 10:04:44;;;;;;;95.90;90.40;;;4.60;99.90;;;;;;5050277;28;20029;-73
2024/01/18 10:07:10;;;;;;;39.93;37.53;;;4.60;99.90;;;;;;5048917;28;20471;-73
2024/01/18 10:09:36;;;;;;;49.27;46.27;;;4.60;99.90;;;;;;5051456;28;20033;-73
2024/01/18 10:12:02;;;;;;;92.53;87.00;;;4.70;99.90;;;;;;5051484;28;20040;-72
2024/01/18 10:14:40;;;;;;;58.83;55.00;;;4.80;99.90;;;;;;5032463;28;20396;-73
2024/01/18 10:17:07;;;;;;;49.67;46.50;;;5.10;99.90;;;;;;5030463;28;20052;-73
2024/01/18 10:19:34;;;;;;;43.73;41.13;;;4.80;99.90;;;;;;5043264;28;20040;-73
2024/01/18 10:22:00;;;;;;;63.80;60.00;;;4.80;99.90;;;;;;5043740;28;20036;-74
2024/01/18 10:24:26;;;;;;;46.23;43.37;;;4.90;99.90;;;;;;5045238;28;20049;-73
2024/01/18 10:27:04;;;;;;;83.03;78.43;;;4.90;99.90;;;;;;5035658;28;20048;-74
2024/01/18 10:29:36;;;;;;;58.50;54.90;;;4.90;99.90;;;;;;5052347;28;20044;-74
2024/01/18 10:32:03;;;;;;;115.37;109.00;;;4.90;99.90;;;;;;5045909;28;20033;-74
2024/01/18 10:34:36;;;;;;;135.57;128.20;;;4.90;99.90;;;;;;5049057;28;20044;-73
2024/01/18 10:37:03;;;;;;;99.40;93.63;;;5.00;99.90;;;;;;5044888;28;20025;-73
2024/01/18 10:39:40;;;;;;;77.50;73.10;;;5.00;99.90;;;;;;5049107;28;20052;-74
2024/01/18 10:42:09;;;;;;;54.57;50.43;;;5.10;99.90;;;;;;5038999;28;20046;-74
2024/01/18 10:44:42;;;;;;;104.60;98.70;;;5.10;99.90;;;;;;5034443;28;20034;-74
2024/01/18 10:47:13;;;;;;;50.27;46.10;;;5.20;99.90;;;;;;5049194;28;20513;-73
2024/01/18 10:49:43;;;;;;;45.75;42.00;;;5.10;99.90;;;;;;5046101;28;20471;-73
2024/01/18 10:52:12;;;;;;;62.13;57.53;;;5.00;99.90;;;;;;5053326;28;20506;-74
2024/01/18 10:54:39;;;;;;;65.13;60.40;;;5.00;99.90;;;;;;5052520;28;20045;-73
2024/01/18 10:57:05;;;;;;;59.03;55.33;;;5.10;99.90;;;;;;5044598;28;20040;-73
2024/01/18 10:59:31;;;;;;;50.67;46.27;;;5.00;99.90;;;;;;5035873;28;20029;-73
2024/01/18 11:01:59;;;;;;;84.20;76.97;;;5.00;99.90;;;;;;5048780;28;20044;-73
2024/01/18 11:04:30;;;;;;;67.60;63.30;;;5.10;99.90;;;;;;5042335;28;20057;-73
2024/01/18 11:06:57;;;;;;;57.23;53.47;;;5.20;99.90;;;;;;5050192;28;20049;-73
2024/01/18 11:09:30;;;;;;;60.20;56.30;;;5.30;99.90;;;;;;5047740;28;20052;-74
2024/01/18 11:11:56;;;;;;;63.47;59.57;;;5.30;99.90;;;;;;5037172;28;20037;-73
2024/01/18 11:14:22;;;;;;;54.37;50.70;;;5.30;99.90;;;;;;5033078;28;20175;-73
2024/01/18 11:16:48;;;;;;;58.57;54.70;;;5.30;99.90;;;;;;5034243;28;20437;-73
2024/01/18 11:19:41;;;;;;;66.20;61.83;;;5.30;99.90;;;;;;5041932;28;20045;-74
2024/01/18 11:22:11;;;;;;;47.40;44.30;;;5.40;99.90;;;;;;5049053;28;20044;-73
2024/01/18 11:24:38;;;;;;;56.83;53.40;;;5.30;99.90;;;;;;5044107;28;20488;-73
2024/01/18 11:27:19;;;;;;;52.40;49.07;;;5.40;99.90;;;;;;5048528;28;20048;-73
2024/01/18 11:29:46;;;;;;;61.20;56.80;;;5.30;99.90;;;;;;5053066;28;20025;-74
2024/01/18 11:32:14;;;;;;;75.77;69.43;;;5.40;99.90;;;;;;5040906;28;20037;-74
2024/01/18 11:34:40;;;;;;;41.77;38.77;;;5.50;99.90;;;;;;5052284;28;20049;-74
2024/01/18 11:37:12;;;;;;;63.23;58.67;;;5.50;99.90;;;;;;5043874;28;20029;-73
2024/01/18 11:39:52;;;;;;;76.57;72.00;;;5.60;99.90;;;;;;5045348;28;20514;-74
2024/01/18 11:42:20;;;;;;;39.40;36.90;;;5.40;99.90;;;;;;5049753;28;20479;-74
2024/01/18 11:45:07;;;;;;;43.83;40.70;;;5.40;99.90;;;;;;5054008;28;20048;-73
2024/01/18 11:47:35;;;;;;;39.87;37.27;;;5.40;99.90;;;;;;5045332;28;20391;-73
2024/01/18 11:50:05;;;;;;;41.83;38.83;;;5.50;99.90;;;;;;5047299;28;20091;-73
2024/01/18 11:52:34;;;;;;;40.33;37.73;;;5.50;99.90;;;;;;5037734;28;20065;-74
2024/01/18 11:55:01;;;;;;;40.77;37.97;;;5.50;99.90;;;;;;5035801;28;20037;-74
2024/01/18 11:57:27;;;;;;;43.53;40.67;;;5.60;99.90;;;;;;5045612;28;20033;-74
2024/01/18 11:59:54;;;;;;;51.30;48.20;;;5.80;99.90;;;;;;5041322;28;20045;-74
2024/01/18 12:02:21;;;;;;;93.73;88.73;;;5.70;99.90;;;;;;5040731;28;20041;-73
2024/01/18 12:04:48;;;;;;;136.10;129.17;;;5.70;99.90;;;;;;5033762;28;20053;-73
2024/01/18 12:07:14;;;;;;;46.17;42.93;;;5.70;99.90;;;;;;5036561;28;20028;-73
2024/01/18 12:09:40;;;;;;;56.57;52.13;;;5.80;99.90;;;;;;5048630;28;20037;-74
2024/01/18 12:12:06;;;;;;;47.27;44.17;;;5.90;99.90;;;;;;5047307;28;20036;-73
2024/01/18 12:14:33;;;;;;;52.57;48.07;;;5.90;99.90;;;;;;5047966;28;20511;-73
2024/01/18 12:17:00;;;;;;;48.47;45.63;;;5.90;99.90;;;;;;5050506;28;20399;-73
2024/01/18 12:19:33;;;;;;;59.23;55.40;;;6.10;99.90;;;;;;5035284;28;20074;-73
2024/01/18 12:22:02;;;;;;;78.07;73.80;;;6.20;99.90;;;;;;5047400;28;20033;-73
2024/01/18 12:24:28;;;;;;;108.83;102.80;;;6.40;99.90;;;;;;5045835;28;20040;-73
2024/01/18 12:26:54;;;;;;;93.23;88.20;;;6.50;99.90;;;;;;5045663;28;20032;-74
2024/01/18 12:29:22;;;;;;;101.10;95.70;;;6.50;99.90;;;;;;5041247;28;20047;-73
2024/01/18 12:31:49;;;;;;;1999.90;999.90;;;6.70;99.90;;;;;;5027953;28;20040;-73